Terminal Aerodrome Forecast
Issued by NWS

Current Version | Previous Version | Graphics & Text | Print | Product List | Glossary On
Versions: 1 2 3 4 5 6 7 8 9 10 11 12 13 14 15 16 17 18 19 20 21
000
FTUS41 KPBZ 010500
TAFMGW
TAF
KMGW 010524Z 0106/0206 21004KT P6SM OVC050
     FM011000 VRB03KT 5SM -SN BR OVC030
     FM011200 17004KT 2SM -SN BR OVC012
     FM011600 17006KT 2SM -RA BR OVC020
     FM012100 12005KT 3SM -DZ BR BKN008 OVC080
     FM020400 13006KT 2SM -RA BR OVC005=

USA.gov is the U.S. government's official web portal to all federal, state and local government web resources and services.